Time;durP1;ratioP1;P1;durP2;ratioP2;P2;SDS_P1;SDS_P2;PMS_P1;PMS_P2;Temp;Humidity;BMP_temperature;BMP_pressure;BME280_temperature;BME280_humidity;BME280_pressure;Samples;Min_cycle;Max_cycle;Signal;HPM_P1;HPM_P2
2023/06/26 00:01:08;;;;;;;4.03;1.10;;;;;;;20.74;100.00;98345.72;15276815;19;20655;-51
2023/06/26 00:06:33;;;;;;;1.50;1.02;;;;;;;20.72;100.00;98340.47;15284764;19;20015;-49
2023/06/26 00:11:59;;;;;;;1.70;1.15;;;;;;;20.72;100.00;98328.69;15285423;19;20010;-54
2023/06/26 00:17:28;;;;;;;1.30;1.10;;;;;;;20.69;100.00;98338.22;15280271;19;20042;-49
2023/06/26 00:22:59;;;;;;;1.20;1.10;;;;;;;20.62;100.00;98335.56;15283460;19;20408;-49
2023/06/26 00:28:23;;;;;;;1.55;1.10;;;;;;;20.56;100.00;98324.69;15280630;19;20018;-52
2023/06/26 00:33:58;;;;;;;1.20;1.10;;;;;;;20.46;100.00;98326.03;15278814;19;20026;-50
2023/06/26 00:39:25;;;;;;;3.15;1.15;;;;;;;20.38;100.00;98320.06;15280566;19;20015;-50
2023/06/26 00:44:52;;;;;;;1.38;1.17;;;;;;;20.34;100.00;98322.41;15281676;19;20014;-49
2023/06/26 00:50:19;;;;;;;1.10;1.00;;;;;;;20.28;100.00;98318.69;15279064;19;20003;-49
2023/06/26 00:55:44;;;;;;;1.20;1.10;;;;;;;20.20;100.00;98316.22;15279614;19;20016;-49
2023/06/26 01:01:08;;;;;;;1.35;0.93;;;;;;;20.19;100.00;98316.47;15272611;19;20019;-50
2023/06/26 01:06:39;;;;;;;1.48;1.38;;;;;;;20.17;100.00;98303.84;15284020;19;20018;-50
2023/06/26 01:12:04;;;;;;;1.20;1.10;;;;;;;20.15;100.00;98302.41;15281510;19;20022;-49
2023/06/26 01:17:31;;;;;;;2.00;1.17;;;;;;;20.13;100.00;98310.00;15272314;19;20019;-54
2023/06/26 01:23:08;;;;;;;1.75;1.10;;;;;;;20.09;100.00;98303.28;15280097;19;20014;-50
2023/06/26 01:28:37;;;;;;;1.30;1.20;;;;;;;20.01;100.00;98301.69;15278590;19;20021;-53
2023/06/26 01:34:03;;;;;;;1.25;1.13;;;;;;;19.94;100.00;98296.28;15273982;19;20024;-50
2023/06/26 01:39:29;;;;;;;1.40;1.30;;;;;;;19.91;100.00;98290.44;15276810;19;20022;-49
2023/06/26 01:44:59;;;;;;;1.55;1.30;;;;;;;19.83;100.00;98289.63;15276145;19;20018;-51
2023/06/26 01:50:31;;;;;;;1.40;1.20;;;;;;;19.78;100.00;98285.91;15273300;19;20018;-50
2023/06/26 01:55:56;;;;;;;;;;;;;;;19.68;100.00;98283.69;15276507;19;20456;-47
2023/06/26 02:01:24;;;;;;;1.98;1.20;;;;;;;19.60;100.00;98271.13;15269196;19;19929;-53
2023/06/26 02:06:48;;;;;;;1.40;1.30;;;;;;;19.43;100.00;98261.84;15277293;19;20412;-56
2023/06/26 02:12:17;;;;;;;1.33;1.23;;;;;;;19.29;100.00;98259.19;15272976;19;20077;-55
2023/06/26 02:17:47;;;;;;;1.25;1.13;;;;;;;19.24;100.00;98265.34;15270434;19;20010;-55
2023/06/26 02:23:12;;;;;;;1.88;1.17;;;;;;;19.23;100.00;98269.13;15275183;19;20039;-55
2023/06/26 02:28:37;;;;;;;1.40;1.30;;;;;;;19.17;100.00;98274.63;15274554;19;20329;-52
2023/06/26 02:34:12;;;;;;;1.58;1.20;;;;;;;19.05;100.00;98272.59;15267871;19;20022;-52
2023/06/26 02:39:37;;;;;;;1.77;1.48;;;;;;;18.89;100.00;98278.53;15271815;19;20610;-51
2023/06/26 02:45:02;;;;;;;1.95;1.33;;;;;;;18.77;100.00;98270.22;15272711;19;20014;-51
2023/06/26 02:50:29;;;;;;;3.03;1.40;;;;;;;18.66;100.00;98271.72;15269885;19;20017;-53
2023/06/26 02:55:57;;;;;;;1.73;1.40;;;;;;;18.55;100.00;98278.72;15269795;19;20034;-51
2023/06/26 03:01:23;;;;;;;2.45;1.52;;;;;;;18.38;100.00;98272.06;15268562;19;20092;-55
2023/06/26 03:06:50;;;;;;;1.60;1.50;;;;;;;18.25;100.00;98268.34;15268650;19;20014;-56
2023/06/26 03:12:15;;;;;;;1.70;1.60;;;;;;;18.15;100.00;98265.22;15265599;19;20011;-53
2023/06/26 03:17:40;;;;;;;4.30;1.52;;;;;;;18.06;100.00;98261.06;15262988;19;20047;-55
2023/06/26 03:23:12;;;;;;;1.90;1.67;;;;;;;17.99;100.00;98263.81;15263876;19;20011;-56
2023/06/26 03:28:37;;;;;;;1.95;1.75;;;;;;;17.93;100.00;98251.00;15271000;19;20010;-54
2023/06/26 03:34:08;;;;;;;2.42;1.92;;;;;;;17.93;100.00;98249.13;15267764;19;20030;-53
2023/06/26 03:39:35;;;;;;;2.08;1.73;;;;;;;17.94;100.00;98258.09;15264512;19;20471;-50
2023/06/26 03:45:00;;;;;;;2.05;1.80;;;;;;;17.81;100.00;98259.84;15271245;19;20015;-54
2023/06/26 03:50:26;;;;;;;2.83;1.80;;;;;;;17.73;100.00;98265.50;15267773;19;20022;-52
2023/06/26 03:55:54;;;;;;;2.58;1.70;;;;;;;17.67;100.00;98263.63;15267444;19;20487;-55
2023/06/26 04:01:21;;;;;;;1.80;1.70;;;;;;;17.73;100.00;98259.22;15264768;19;20011;-51
2023/06/26 04:06:47;;;;;;;1.70;1.60;;;;;;;17.81;100.00;98248.94;15269033;19;20078;-53
2023/06/26 04:12:15;;;;;;;1.90;1.80;;;;;;;17.91;100.00;98251.22;15263146;19;20034;-53
2023/06/26 04:17:40;;;;;;;2.28;1.70;;;;;;;17.99;100.00;98251.00;15267959;19;20021;-52
2023/06/26 04:23:05;;;;;;;4.25;1.77;;;;;;;18.08;100.00;98251.59;15268341;19;20017;-52
2023/06/26 04:28:33;;;;;;;2.40;1.80;;;;;;;18.20;100.00;98254.53;15269313;19;20049;-52
2023/06/26 04:33:59;;;;;;;2.85;1.83;;;;;;;18.28;100.00;98245.28;15266271;19;20026;-52
2023/06/26 04:39:24;;;;;;;2.50;1.77;;;;;;;18.36;100.00;98242.28;15279367;19;20021;-51
2023/06/26 04:44:52;;;;;;;2.40;1.92;;;;;;;18.48;100.00;98246.03;15280849;19;20021;-56
2023/06/26 04:50:18;;;;;;;2.28;1.80;;;;;;;18.58;100.00;98239.25;15278779;19;20017;-54
2023/06/26 04:55:43;;;;;;;1.88;1.70;;;;;;;18.69;100.00;98233.09;15281440;19;20018;-56
2023/06/26 05:01:13;;;;;;;1.88;1.70;;;;;;;18.77;100.00;98224.66;15277374;19;20292;-55
2023/06/26 05:06:38;;;;;;;1.80;1.70;;;;;;;18.88;100.00;98222.28;15281227;19;20800;-55
2023/06/26 05:12:03;;;;;;;3.08;1.85;;;;;;;18.96;100.00;98224.78;15281761;19;20018;-54
2023/06/26 05:17:30;;;;;;;5.32;1.95;;;;;;;19.06;100.00;98222.41;15275744;19;20409;-55
2023/06/26 05:22:57;;;;;;;1.77;1.60;;;;;;;19.16;100.00;98221.06;15281458;19;20038;-55
2023/06/26 05:28:24;;;;;;;2.35;1.90;;;;;;;19.26;100.00;98224.13;15280293;19;20011;-52
2023/06/26 05:33:53;;;;;;;2.00;1.80;;;;;;;19.37;100.00;98225.31;15277625;19;20485;-54
2023/06/26 05:39:19;;;;;;;2.25;2.05;;;;;;;19.49;100.00;98220.78;15275610;19;20459;-51
2023/06/26 05:44:44;;;;;;;2.60;1.85;;;;;;;19.61;100.00;98211.84;15279233;19;20010;-55
2023/06/26 05:50:13;;;;;;;1.70;1.60;;;;;;;19.75;100.00;98215.28;15273997;19;20017;-53
2023/06/26 05:55:41;;;;;;;1.70;1.60;;;;;;;19.89;100.00;98210.53;15279700;19;20010;-53
2023/06/26 06:01:05;;;;;;;3.40;2.00;;;;;;;20.07;100.00;98213.28;15273589;19;20010;-53
2023/06/26 06:06:33;;;;;;;2.28;1.85;;;;;;;20.22;100.00;98215.63;15278066;19;20006;-52
2023/06/26 06:11:57;;;;;;;1.80;1.70;;;;;;;20.37;100.00;98208.94;15276618;19;20547;-53
2023/06/26 06:17:22;;;;;;;1.90;1.80;;;;;;;20.57;100.00;98205.94;15274936;19;20026;-52
2023/06/26 06:22:50;;;;;;;3.13;1.75;;;;;;;20.77;100.00;98200.19;15270245;19;20038;-55
2023/06/26 06:28:16;;;;;;;4.45;1.90;;;;;;;20.96;100.00;98208.34;15275950;19;20024;-57
2023/06/26 06:33:41;;;;;;;1.75;1.60;;;;;;;21.12;100.00;98198.63;15273806;19;20011;-57
2023/06/26 06:39:08;;;;;;;2.65;1.60;;;;;;;21.30;100.00;98203.16;15274303;19;20028;-58
2023/06/26 06:44:33;;;;;;;2.60;1.80;;;;;;;21.54;100.00;98196.63;15274510;19;20464;-54
2023/06/26 06:49:58;;;;;;;1.80;1.63;;;;;;;21.81;100.00;98198.06;15273529;19;20356;-56
2023/06/26 06:55:26;;;;;;;2.75;1.50;;;;;;;22.01;100.00;98192.22;15269023;19;20021;-56
2023/06/26 07:00:51;;;;;;;3.45;1.73;;;;;;;22.25;100.00;98189.41;15269311;19;20018;-53
2023/06/26 07:06:16;;;;;;;4.95;1.70;;;;;;;22.47;100.00;98193.19;15272899;19;20023;-55
2023/06/26 07:11:44;;;;;;;2.17;1.70;;;;;;;22.70;100.00;98183.16;15274717;19;20085;-53
2023/06/26 07:17:09;;;;;;;3.60;1.63;;;;;;;22.88;100.00;98168.38;15272384;19;20299;-53
2023/06/26 07:22:34;;;;;;;4.43;3.72;;;;;;;23.15;100.00;98167.75;15273005;19;20086;-54
2023/06/26 07:27:54;;;;;;;2.75;2.33;;;;;;;23.38;100.00;98168.69;15270545;19;20234;-56
2023/06/26 07:33:26;;;;;;;;;;;;;;;23.62;100.00;98165.72;15271350;19;20371;-56
2023/06/26 07:38:57;;;;;;;1.67;1.58;;;;;;;23.85;100.00;98160.00;15262382;19;20373;-51
2023/06/26 07:44:24;;;;;;;2.40;1.50;;;;;;;24.12;100.00;98155.69;15262886;19;20011;-50
2023/06/26 07:49:50;;;;;;;1.58;1.48;;;;;;;24.31;100.00;98157.00;15268727;19;20046;-48
2023/06/26 07:55:15;;;;;;;1.83;1.30;;;;;;;24.53;100.00;98158.91;15268273;19;20462;-50
2023/06/26 08:00:42;;;;;;;3.25;1.35;;;;;;;24.74;100.00;98148.97;15267947;19;20362;-51
2023/06/26 08:06:07;;;;;;;1.60;1.50;;;;;;;24.88;100.00;98149.34;15268634;19;20011;-50
2023/06/26 08:11:32;;;;;;;1.70;1.60;;;;;;;25.05;100.00;98145.66;15274144;19;20019;-50
2023/06/26 08:16:59;;;;;;;2.08;1.50;;;;;;;25.30;100.00;98144.19;15278153;19;20035;-49
2023/06/26 08:22:24;;;;;;;4.47;1.40;;;;;;;25.51;100.00;98140.50;15279715;19;20019;-51
2023/06/26 08:27:52;;;;;;;1.50;1.40;;;;;;;25.81;99.83;98136.22;15279566;19;20034;-49
2023/06/26 08:33:20;;;;;;;2.28;1.52;;;;;;;26.03;97.86;98135.25;15283614;19;20451;-51
2023/06/26 08:38:45;;;;;;;1.77;1.30;;;;;;;26.23;94.49;98128.16;15279712;19;20343;-51
2023/06/26 08:44:10;;;;;;;3.63;1.40;;;;;;;26.40;95.42;98131.50;15281394;19;20017;-49
2023/06/26 08:49:49;;;;;;;2.00;1.38;;;;;;;26.58;92.35;98113.59;15279401;19;20022;-51
2023/06/26 08:55:19;;;;;;;2.67;1.10;;;;;;;26.82;88.55;98126.09;15280904;19;20778;-47
2023/06/26 09:00:45;;;;;;;1.63;1.30;;;;;;;26.96;81.28;98124.47;15272236;19;20363;-48
2023/06/26 09:06:13;;;;;;;1.33;1.10;;;;;;;27.12;82.53;98116.97;15280994;19;20082;-50
2023/06/26 09:11:38;;;;;;;1.40;1.15;;;;;;;27.33;76.83;98116.94;15275075;19;20074;-50
2023/06/26 09:17:02;;;;;;;2.35;1.27;;;;;;;27.47;81.60;98115.31;15276831;19;21074;-50
2023/06/26 09:22:31;;;;;;;1.40;1.25;;;;;;;27.61;73.63;98117.50;15275530;19;20500;-49
2023/06/26 09:27:57;;;;;;;1.70;1.10;;;;;;;27.75;69.04;98124.09;15278693;19;20029;-49
2023/06/26 09:33:23;;;;;;;1.00;0.90;;;;;;;27.87;62.53;98109.09;15272995;19;20035;-49
2023/06/26 09:38:50;;;;;;;1.70;1.08;;;;;;;27.99;64.62;98104.03;15276402;19;21049;-48
2023/06/26 09:44:17;;;;;;;1.13;1.10;;;;;;;28.08;65.36;98102.41;15276397;19;20099;-49
2023/06/26 09:49:42;;;;;;;2.72;1.10;;;;;;;28.23;67.15;98093.16;15275364;19;20438;-49
2023/06/26 09:55:14;;;;;;;2.90;1.17;;;;;;;28.39;66.94;98088.38;15276192;19;20021;-51
2023/06/26 10:00:39;;;;;;;3.33;1.10;;;;;;;28.49;67.12;98086.63;15270793;19;20549;-50
2023/06/26 10:05:58;;;;;;;1.83;1.00;;;;;;;28.58;66.53;98080.19;15271041;19;20362;-49
2023/06/26 10:11:28;;;;;;;1.77;1.10;;;;;;;28.67;65.34;98082.34;15272742;19;20023;-52
2023/06/26 10:16:55;;;;;;;1.70;1.10;;;;;;;28.58;67.53;98084.91;15274894;19;20022;-51
2023/06/26 10:22:24;;;;;;;1.40;1.20;;;;;;;28.48;67.23;98074.75;15269740;19;20854;-51
2023/06/26 10:27:58;;;;;;;4.78;1.10;;;;;;;28.37;67.97;98073.16;15275737;19;20014;-49
2023/06/26 10:33:25;;;;;;;1.42;1.20;;;;;;;28.52;65.20;98064.72;15273114;19;20031;-50
2023/06/26 10:39:00;;;;;;;2.83;1.10;;;;;;;28.71;62.02;98061.25;15266641;19;20051;-50
2023/06/26 10:44:27;;;;;;;1.17;1.08;;;;;;;28.83;61.00;98052.59;15273022;19;20021;-50
2023/06/26 10:49:56;;;;;;;2.15;0.98;;;;;;;28.88;60.21;98061.69;15268699;19;20288;-49
2023/06/26 10:55:31;;;;;;;2.60;1.00;;;;;;;28.99;58.50;98051.34;15272854;19;20034;-51
2023/06/26 11:01:01;;;;;;;1.00;1.00;;;;;;;29.12;57.58;98044.28;15267803;19;20019;-51
2023/06/26 11:06:26;;;;;;;0.80;0.80;;;;;;;29.19;59.70;98033.69;15269742;19;20471;-52
2023/06/26 11:12:08;;;;;;;2.35;0.90;;;;;;;29.34;56.33;98024.38;15265176;19;20014;-50
2023/06/26 11:17:37;;;;;;;1.85;1.08;;;;;;;29.49;57.25;98015.06;15270421;19;20420;-51
2023/06/26 11:23:01;;;;;;;1.33;0.90;;;;;;;29.85;58.52;98015.72;15268686;19;20366;-50
2023/06/26 11:28:27;;;;;;;1.52;1.08;;;;;;;29.88;56.09;98015.13;15269929;19;20026;-50
2023/06/26 11:33:58;;;;;;;1.60;1.00;;;;;;;30.07;52.94;98006.84;15270145;19;20014;-48
2023/06/26 11:39:23;;;;;;;0.80;0.80;;;;;;;30.29;50.98;98003.44;15267722;19;20067;-50
2023/06/26 11:44:51;;;;;;;1.10;1.00;;;;;;;30.33;50.13;98012.81;15269150;19;20511;-50
2023/06/26 11:50:20;;;;;;;2.40;1.00;;;;;;;30.31;50.60;98017.84;15275225;19;20018;-55
2023/06/26 11:55:50;;;;;;;2.58;1.10;;;;;;;30.20;50.85;98010.81;15283077;19;20668;-51
2023/06/26 12:01:18;;;;;;;0.93;0.93;;;;;;;30.44;52.19;98008.75;15276295;19;20014;-50
2023/06/26 12:06:57;;;;;;;1.92;1.00;;;;;;;30.49;51.71;98012.59;15283603;19;20018;-48
2023/06/26 12:12:23;;;;;;;2.33;0.93;;;;;;;30.69;51.89;98001.16;15273543;19;20011;-49
2023/06/26 12:17:49;;;;;;;2.53;0.82;;;;;;;30.73;52.22;97990.25;15277840;19;20374;-52
2023/06/26 12:23:22;;;;;;;1.10;1.00;;;;;;;30.97;49.51;97998.44;15280991;19;20017;-53
2023/06/26 12:28:54;;;;;;;1.98;1.00;;;;;;;31.14;48.58;97988.69;15280008;19;20014;-54
2023/06/26 12:34:22;;;;;;;1.92;0.90;;;;;;;31.26;48.48;97991.78;15278479;19;20374;-51
2023/06/26 12:40:00;;;;;;;3.38;1.00;;;;;;;31.21;48.13;97983.56;15278265;19;20363;-51
2023/06/26 12:45:26;;;;;;;3.05;1.00;;;;;;;31.28;47.17;97963.69;15276626;19;20014;-51
2023/06/26 12:50:53;;;;;;;1.15;1.00;;;;;;;31.13;47.38;97979.53;15276920;19;20006;-51
2023/06/26 12:56:20;;;;;;;2.75;0.98;;;;;;;30.67;40.75;97974.78;15280866;19;20118;-48
2023/06/26 13:01:45;;;;;;;1.10;0.90;;;;;;;30.58;49.69;97971.88;15275248;19;20018;-50
2023/06/26 13:07:10;;;;;;;1.20;1.10;;;;;;;30.67;51.04;97964.47;15280508;19;20021;-52
2023/06/26 13:12:37;;;;;;;1.52;1.10;;;;;;;30.96;49.04;97954.22;15279010;19;20010;-53
2023/06/26 13:18:02;;;;;;;1.15;1.00;;;;;;;31.20;47.33;97943.78;15275312;19;20013;-53
2023/06/26 13:23:26;;;;;;;1.25;0.90;;;;;;;30.87;47.77;97935.47;15278083;19;20019;-53
2023/06/26 13:28:54;;;;;;;1.50;0.95;;;;;;;31.34;48.06;97937.38;15278963;19;20015;-53
2023/06/26 13:34:29;;;;;;;5.50;1.13;;;;;;;31.02;46.77;97934.34;15275712;19;20010;-53
2023/06/26 13:39:55;;;;;;;2.60;1.10;;;;;;;30.72;48.92;97931.03;15275817;19;20447;-48
2023/06/26 13:45:22;;;;;;;1.02;0.93;;;;;;;30.38;49.79;97923.84;15276846;19;20074;-47
2023/06/26 13:50:49;;;;;;;8.65;1.27;;;;;;;29.50;54.24;97969.53;15270486;19;20020;-50
2023/06/26 13:56:14;;;;;;;9.98;1.30;;;;;;;28.30;74.04;98013.34;15274241;19;20022;-48
2023/06/26 14:01:42;;;;;;;9.23;1.65;;;;;;;27.32;100.00;98041.47;15278404;19;20013;-49
2023/06/26 14:07:07;;;;;;;12.20;1.60;;;;;;;26.23;100.00;98028.75;15275145;19;20385;-52
2023/06/26 14:12:32;;;;;;;7.95;1.50;;;;;;;25.93;100.00;98027.56;15273232;19;20022;-50
2023/06/26 14:17:59;;;;;;;6.53;1.70;;;;;;;25.77;100.00;98021.16;14764943;19;10000104;-51
2023/06/26 14:23:24;;;;;;;14.68;1.80;;;;;;;25.83;100.00;98023.66;15267813;19;20023;-48
2023/06/26 14:28:49;;;;;;;5.53;1.80;;;;;;;25.69;100.00;98025.28;15273250;19;20042;-50
2023/06/26 14:34:18;;;;;;;7.35;1.55;;;;;;;25.55;100.00;98024.94;15273021;19;20015;-47
2023/06/26 14:39:42;;;;;;;3.63;1.40;;;;;;;25.79;100.00;98052.91;15271421;19;20018;-60
2023/06/26 14:45:08;;;;;;;3.75;1.50;;;;;;;25.13;100.00;98018.34;15274810;19;20014;-59
2023/06/26 14:50:36;;;;;;;3.38;1.52;;;;;;;24.74;100.00;98058.06;15271001;19;20739;-43
2023/06/26 14:56:08;;;;;;;3.38;1.40;;;;;;;24.74;100.00;98036.00;15268903;19;20010;-46
2023/06/26 15:01:33;;;;;;;2.08;1.30;;;;;;;24.68;100.00;98052.72;15269935;19;20022;-46
2023/06/26 15:07:01;;;;;;;5.13;1.55;;;;;;;24.46;100.00;98048.94;15272509;19;20014;-51
2023/06/26 15:12:27;;;;;;;1.60;1.50;;;;;;;24.40;100.00;98018.91;15270540;19;20479;-46
2023/06/26 15:17:51;;;;;;;5.38;1.60;;;;;;;24.39;100.00;98023.56;15271418;19;20010;-46
2023/06/26 15:23:19;;;;;;;3.63;1.67;;;;;;;24.89;100.00;98029.78;15269103;19;20014;-46
2023/06/26 15:28:43;;;;;;;5.53;1.50;;;;;;;24.93;100.00;98035.63;15268248;19;20022;-51
2023/06/26 15:34:08;;;;;;;5.15;1.60;;;;;;;25.05;100.00;98038.16;15268262;19;20018;-56
2023/06/26 15:39:35;;;;;;;3.67;1.75;;;;;;;24.82;100.00;98051.22;15260818;19;20018;-56
2023/06/26 15:45:00;;;;;;;2.75;1.85;;;;;;;24.88;100.00;98055.66;15268595;19;20400;-51
2023/06/26 15:50:27;;;;;;;5.15;1.60;;;;;;;24.82;100.00;98065.00;15264511;19;20027;-52
2023/06/26 15:55:55;;;;;;;7.88;1.83;;;;;;;24.68;100.00;98091.28;15270533;19;20010;-51
2023/06/26 16:01:21;;;;;;;2.25;1.77;;;;;;;24.57;100.00;98085.69;15260484;19;20522;-48
2023/06/26 16:06:46;;;;;;;3.78;1.80;;;;;;;24.60;100.00;98087.94;15267877;19;20444;-49
2023/06/26 16:12:14;;;;;;;7.68;1.88;;;;;;;25.04;100.00;98072.31;15260126;19;20014;-54
2023/06/26 16:17:39;;;;;;;6.68;1.85;;;;;;;25.00;100.00;98077.53;15257183;19;20368;-47
2023/06/26 16:23:04;;;;;;;3.95;1.90;;;;;;;25.07;100.00;98080.88;15263711;19;20721;-52
2023/06/26 16:28:31;;;;;;;5.13;1.88;;;;;;;24.82;100.00;98078.78;15266437;19;20018;-53
2023/06/26 16:33:56;;;;;;;5.57;2.10;;;;;;;24.63;100.00;98092.06;15281266;19;20434;-54
2023/06/26 16:39:24;;;;;;;4.03;2.20;;;;;;;24.50;100.00;98092.50;15277964;19;20010;-54
2023/06/26 16:44:53;;;;;;;4.88;2.00;;;;;;;24.47;100.00;98111.19;15280029;19;20014;-49
2023/06/26 16:50:19;;;;;;;3.75;1.90;;;;;;;24.68;100.00;98096.78;15268934;19;20364;-51
2023/06/26 16:55:44;;;;;;;2.72;2.00;;;;;;;24.90;100.00;98099.50;15278401;19;20039;-51
2023/06/26 17:01:12;;;;;;;4.38;2.03;;;;;;;25.14;100.00;98112.91;15275176;19;20018;-53
2023/06/26 17:06:36;;;;;;;3.95;2.00;;;;;;;25.04;100.00;98110.91;15277874;19;20026;-53
2023/06/26 17:12:02;;;;;;;7.90;1.80;;;;;;;24.88;100.00;98120.97;15273995;19;20074;-51
2023/06/26 17:17:30;;;;;;;3.72;1.90;;;;;;;24.87;100.00;98142.16;15279709;19;20025;-55
2023/06/26 17:22:58;;;;;;;3.38;1.65;;;;;;;24.83;100.00;98131.94;15244034;19;20021;-53
2023/06/26 17:28:22;;;;;;;3.33;1.75;;;;;;;24.55;100.00;98128.38;15278397;19;20025;-52
2023/06/26 17:33:50;;;;;;;6.80;1.80;;;;;;;24.30;100.00;98133.31;15277166;19;20020;-55
2023/06/26 17:39:14;;;;;;;3.90;2.17;;;;;;;24.33;100.00;98142.16;15275894;19;20020;-53
2023/06/26 17:44:39;;;;;;;3.25;1.70;;;;;;;24.05;100.00;98147.63;15275079;19;20019;-49
2023/06/26 17:50:07;;;;;;;3.97;1.77;;;;;;;24.08;100.00;98162.78;15275038;19;20351;-53
2023/06/26 17:55:32;;;;;;;2.35;1.75;;;;;;;23.84;100.00;98169.34;15272264;19;20876;-51
2023/06/26 18:00:56;;;;;;;3.78;1.42;;;;;;;23.60;100.00;98176.97;15268873;19;20281;-50
2023/06/26 18:06:24;;;;;;;5.25;1.70;;;;;;;23.47;100.00;98180.06;15276060;19;20390;-53
2023/06/26 18:11:48;;;;;;;5.68;1.50;;;;;;;23.48;100.00;98181.72;15274099;19;20347;-52
2023/06/26 18:17:13;;;;;;;2.30;1.45;;;;;;;23.23;100.00;98186.59;15274987;19;20035;-55
2023/06/26 18:22:40;;;;;;;4.70;1.50;;;;;;;23.11;100.00;98206.97;15270028;19;20453;-46
2023/06/26 18:28:05;;;;;;;4.22;1.33;;;;;;;23.00;100.00;98201.25;15270336;19;20039;-45
2023/06/26 18:33:29;;;;;;;3.88;1.40;;;;;;;22.88;100.00;98206.00;15274788;19;20031;-44
2023/06/26 18:38:57;;;;;;;2.60;1.40;;;;;;;22.80;100.00;98203.66;15275262;19;20021;-47
2023/06/26 18:44:21;;;;;;;3.08;1.42;;;;;;;22.73;100.00;98234.00;15275451;19;20020;-44
2023/06/26 18:49:46;;;;;;;3.90;1.27;;;;;;;22.60;100.00;98225.00;15273341;19;20021;-46
2023/06/26 18:55:16;;;;;;;3.35;1.50;;;;;;;22.46;100.00;98232.69;15274256;19;20055;-46
2023/06/26 19:00:43;;;;;;;2.30;1.50;;;;;;;22.35;100.00;98239.00;15278632;19;20372;-44
2023/06/26 19:06:07;;;;;;;1.98;1.25;;;;;;;22.28;100.00;98241.06;15284571;19;20012;-50
2023/06/26 19:11:35;;;;;;;3.90;1.35;;;;;;;22.17;100.00;98246.31;15274487;19;20018;-48
2023/06/26 19:17:00;;;;;;;3.38;1.45;;;;;;;22.01;100.00;98260.78;15249796;19;20018;-50
2023/06/26 19:22:27;;;;;;;2.47;1.20;;;;;;;21.74;100.00;98272.22;15269825;19;20002;-47
2023/06/26 19:27:54;;;;;;;3.90;1.40;;;;;;;21.60;100.00;98279.00;15272516;19;20014;-55
2023/06/26 19:33:19;;;;;;;1.88;1.10;;;;;;;21.46;100.00;98295.63;15266935;19;20578;-54
2023/06/26 19:38:43;;;;;;;2.78;1.10;;;;;;;21.36;100.00;98292.63;15271055;19;20077;-55
2023/06/26 19:44:17;;;;;;;3.95;1.30;;;;;;;21.15;100.00;98311.28;15263367;19;20020;-59
2023/06/26 19:49:44;;;;;;;1.80;1.17;;;;;;;21.06;100.00;98326.38;15268943;19;20050;-58
2023/06/26 19:55:08;;;;;;;4.00;1.20;;;;;;;20.92;100.00;98320.25;15267896;19;20018;-58
2023/06/26 20:00:37;;;;;;;2.92;1.10;;;;;;;20.79;100.00;98326.72;15265115;19;20014;-57
2023/06/26 20:06:02;;;;;;;3.50;0.93;;;;;;;20.66;100.00;98329.59;15268187;19;20025;-59
2023/06/26 20:11:28;;;;;;;3.05;0.93;;;;;;;20.56;100.00;98336.44;15279240;19;20106;-57
2023/06/26 20:16:55;;;;;;;3.05;1.20;;;;;;;20.51;100.00;98349.16;15281620;19;20086;-62
2023/06/26 20:22:20;;;;;;;2.92;1.00;;;;;;;20.41;100.00;98344.19;15277461;19;20013;-63
2023/06/26 20:27:45;;;;;;;2.20;0.82;;;;;;;20.33;100.00;98343.44;15280877;19;20007;-54
2023/06/26 20:33:13;;;;;;;1.40;0.90;;;;;;;20.27;100.00;98357.19;15281044;19;20010;-49
2023/06/26 20:38:37;;;;;;;3.42;1.00;;;;;;;20.16;100.00;98365.06;15277829;19;20077;-52
2023/06/26 20:44:09;;;;;;;2.92;1.00;;;;;;;20.13;100.00;98351.03;15273549;19;20077;-54
2023/06/26 20:49:38;;;;;;;3.15;1.00;;;;;;;19.99;100.00;98362.09;15278772;19;20017;-53
2023/06/26 20:55:03;;;;;;;1.95;1.00;;;;;;;19.90;100.00;98377.09;15277674;19;20029;-50
2023/06/26 21:00:28;;;;;;;5.78;1.08;;;;;;;19.90;100.00;98370.78;15276356;19;20088;-49
2023/06/26 21:05:56;;;;;;;2.10;1.00;;;;;;;19.85;100.00;98385.94;15278535;19;20035;-53
2023/06/26 21:11:21;;;;;;;1.58;0.80;;;;;;;19.83;100.00;98388.06;15272251;19;20035;-54
2023/06/26 21:16:45;;;;;;;2.78;0.90;;;;;;;19.78;100.00;98389.78;15273992;19;20022;-54
2023/06/26 21:22:13;;;;;;;1.98;0.90;;;;;;;19.72;100.00;98394.25;15273115;19;20032;-51
2023/06/26 21:27:37;;;;;;;3.60;1.10;;;;;;;19.67;100.00;98400.38;15277068;19;20014;-52
2023/06/26 21:33:02;;;;;;;2.70;1.02;;;;;;;19.60;100.00;98405.03;15274922;19;20014;-55
2023/06/26 21:38:29;;;;;;;5.72;1.00;;;;;;;19.52;100.00;98405.31;15276081;19;20021;-54
2023/06/26 21:44:01;;;;;;;2.15;0.90;;;;;;;19.48;100.00;98401.31;15269384;19;20549;-51
2023/06/26 21:49:25;;;;;;;3.88;1.10;;;;;;;19.38;100.00;98397.19;15276028;19;20010;-50
2023/06/26 21:54:52;;;;;;;2.47;1.05;;;;;;;19.32;100.00;98397.22;15273451;19;20048;-54
2023/06/26 22:00:18;;;;;;;3.47;0.90;;;;;;;19.19;100.00;98398.13;15274058;19;20015;-53
2023/06/26 22:05:43;;;;;;;2.10;1.10;;;;;;;19.08;100.00;98413.31;15273020;19;20016;-54
2023/06/26 22:11:11;;;;;;;2.35;1.00;;;;;;;18.98;100.00;98413.78;15270074;19;20014;-52
2023/06/26 22:16:36;;;;;;;2.67;0.90;;;;;;;18.94;100.00;98421.53;15274500;19;20039;-54
2023/06/26 22:22:01;;;;;;;1.27;0.80;;;;;;;18.87;100.00;98422.63;15269359;19;20021;-50
2023/06/26 22:27:28;;;;;;;2.67;1.00;;;;;;;18.79;100.00;98421.78;15270584;19;20482;-56
2023/06/26 22:32:54;;;;;;;1.70;0.90;;;;;;;18.70;100.00;98430.44;15271232;19;20014;-52
2023/06/26 22:38:19;;;;;;;2.67;0.80;;;;;;;18.62;100.00;98432.31;15272992;19;20701;-51
2023/06/26 22:43:54;;;;;;;3.55;0.90;;;;;;;18.49;100.00;98432.34;15264265;19;20024;-53
2023/06/26 22:49:18;;;;;;;1.35;0.70;;;;;;;18.42;100.00;98434.25;15271913;19;20105;-54
2023/06/26 22:54:42;;;;;;;2.08;0.80;;;;;;;18.36;100.00;98437.81;15269677;19;20022;-53
2023/06/26 23:00:11;;;;;;;2.67;0.88;;;;;;;18.16;100.00;98434.06;15268877;19;20548;-50
2023/06/26 23:05:36;;;;;;;2.92;1.00;;;;;;;17.98;100.00;98444.75;15267880;19;20118;-55
2023/06/26 23:11:01;;;;;;;4.03;0.90;;;;;;;17.92;100.00;98445.56;15266873;19;20019;-53
2023/06/26 23:16:28;;;;;;;2.13;0.88;;;;;;;17.86;100.00;98449.97;15263997;19;20522;-52
2023/06/26 23:21:54;;;;;;;2.20;0.90;;;;;;;17.81;100.00;98447.00;15267183;19;20019;-51
2023/06/26 23:27:19;;;;;;;1.42;0.70;;;;;;;17.76;100.00;98438.63;15268685;19;20015;-50
2023/06/26 23:32:48;;;;;;;3.00;0.82;;;;;;;17.66;100.00;98449.94;15268205;19;20741;-50
2023/06/26 23:38:12;;;;;;;6.65;0.90;;;;;;;17.60;100.00;98445.28;15269153;19;20466;-52
2023/06/26 23:43:44;;;;;;;1.27;0.70;;;;;;;17.49;100.00;98463.91;15260964;19;20077;-54
2023/06/26 23:49:12;;;;;;;1.65;0.82;;;;;;;17.41;100.00;98450.50;15264283;19;20029;-52
2023/06/26 23:54:37;;;;;;;2.10;0.80;;;;;;;17.35;100.00;98448.56;15265789;19;20020;-51
